createdAt,value
2018-08-28T00:01:55.712Z,15.80
2018-08-28T00:04:26.963Z,15.80
2018-08-28T00:06:58.138Z,15.80
2018-08-28T00:09:29.177Z,15.80
2018-08-28T00:12:00.067Z,15.80
2018-08-28T00:14:31.732Z,15.70
2018-08-28T00:17:03.495Z,15.80
2018-08-28T00:19:34.669Z,15.80
2018-08-28T00:22:05.777Z,15.80
2018-08-28T00:24:37.033Z,15.80
2018-08-28T00:27:07.963Z,15.80
2018-08-28T00:29:38.955Z,15.70
2018-08-28T00:32:09.987Z,15.70
2018-08-28T00:34:40.832Z,15.70
2018-08-28T00:37:11.783Z,15.60
2018-08-28T00:39:42.600Z,15.60
2018-08-28T00:42:13.453Z,15.60
2018-08-28T00:44:44.294Z,15.60
2018-08-28T00:47:15.379Z,15.60
2018-08-28T00:49:46.568Z,15.60
2018-08-28T00:52:17.698Z,15.60
2018-08-28T00:54:48.809Z,15.50
2018-08-28T00:57:19.694Z,15.50
2018-08-28T00:59:50.671Z,15.50
2018-08-28T01:02:21.810Z,15.50
2018-08-28T01:04:53.107Z,15.50
2018-08-28T01:07:24.056Z,15.50
2018-08-28T01:09:55.198Z,15.50
2018-08-28T01:12:26.080Z,15.50
2018-08-28T01:14:56.953Z,15.50
2018-08-28T01:17:27.944Z,15.60
2018-08-28T01:19:59.020Z,15.50
2018-08-28T01:22:30.180Z,15.50
2018-08-28T01:25:01.137Z,15.50
2018-08-28T01:27:32.288Z,15.50
2018-08-28T01:30:03.223Z,15.50
2018-08-28T01:32:34.319Z,15.50
2018-08-28T01:35:05.317Z,15.50
2018-08-28T01:37:36.326Z,15.60
2018-08-28T01:40:07.349Z,15.60
2018-08-28T01:42:38.370Z,15.60
2018-08-28T01:45:09.383Z,15.60
2018-08-28T01:47:40.303Z,15.70
2018-08-28T01:50:11.784Z,15.60
2018-08-28T01:52:42.687Z,15.60
2018-08-28T01:55:13.587Z,15.50
2018-08-28T01:57:44.379Z,15.50
2018-08-28T02:00:15.282Z,15.50
2018-08-28T02:02:46.151Z,15.50
2018-08-28T02:05:17.239Z,15.50
2018-08-28T02:07:48.294Z,15.40
2018-08-28T02:10:19.352Z,15.50
2018-08-28T02:12:50.390Z,15.40
2018-08-28T02:15:21.254Z,15.40
2018-08-28T02:17:52.101Z,15.40
2018-08-28T02:20:23.108Z,15.50
2018-08-28T02:22:54.104Z,15.50
2018-08-28T02:25:25.127Z,15.50
2018-08-28T02:27:55.920Z,15.60
2018-08-28T02:30:27.029Z,15.50
2018-08-28T02:32:57.889Z,15.50
2018-08-28T02:35:28.584Z,15.50
2018-08-28T02:37:59.364Z,15.40
2018-08-28T02:40:30.186Z,15.40
2018-08-28T02:43:01.025Z,15.40
2018-08-28T02:45:31.883Z,15.40
2018-08-28T02:48:03.510Z,15.40
2018-08-28T02:50:34.455Z,15.40
2018-08-28T02:53:05.317Z,15.40
2018-08-28T02:55:36.242Z,15.40
2018-08-28T02:58:07.030Z,15.40
2018-08-28T03:00:37.842Z,15.40
2018-08-28T03:03:08.833Z,15.40
2018-08-28T03:05:39.579Z,15.40
2018-08-28T03:08:10.423Z,15.40
2018-08-28T03:10:41.341Z,15.40
2018-08-28T03:13:12.333Z,15.40
2018-08-28T03:15:43.326Z,15.40
2018-08-28T03:18:14.377Z,15.40
2018-08-28T03:20:45.380Z,15.40
2018-08-28T03:23:16.723Z,15.40
2018-08-28T03:25:47.663Z,15.40
2018-08-28T03:28:18.529Z,15.30
2018-08-28T03:30:49.623Z,15.30
2018-08-28T03:33:21.287Z,15.30
2018-08-28T03:35:52.263Z,15.30
2018-08-28T03:38:23.502Z,15.30
2018-08-28T03:40:54.561Z,15.30
2018-08-28T03:43:25.626Z,15.40
2018-08-28T03:45:56.892Z,15.30
2018-08-28T03:48:28.089Z,15.30
2018-08-28T03:50:59.074Z,15.30
2018-08-28T03:53:30.070Z,15.30
2018-08-28T03:56:01.024Z,15.30
2018-08-28T03:58:31.892Z,15.20
2018-08-28T04:01:03.238Z,15.30
2018-08-28T04:03:34.896Z,15.30
2018-08-28T04:06:05.810Z,15.30
2018-08-28T04:08:37.034Z,15.30
2018-08-28T04:11:08.189Z,15.40
2018-08-28T04:13:39.200Z,15.40
2018-08-28T04:16:10.329Z,15.40
2018-08-28T04:18:41.193Z,15.40
2018-08-28T04:21:12.289Z,15.40
2018-08-28T04:23:43.416Z,15.40
2018-08-28T04:26:14.467Z,15.50
2018-08-28T04:28:45.696Z,15.40
2018-08-28T04:31:16.613Z,15.40
2018-08-28T04:33:47.787Z,15.40
2018-08-28T04:36:18.760Z,15.40
2018-08-28T04:38:49.646Z,15.40
2018-08-28T04:41:20.712Z,15.50
2018-08-28T04:43:51.706Z,15.50
2018-08-28T04:46:22.712Z,15.50
2018-08-28T04:48:53.914Z,15.50
2018-08-28T04:51:25.204Z,15.50
2018-08-28T04:53:56.863Z,15.50
2018-08-28T04:56:27.943Z,15.60
2018-08-28T04:58:58.823Z,15.70
2018-08-28T05:01:29.739Z,15.80
2018-08-28T05:04:00.704Z,15.80
2018-08-28T05:06:31.943Z,15.90
2018-08-28T05:09:02.975Z,15.90
2018-08-28T05:11:33.957Z,15.90
2018-08-28T05:14:05.025Z,16.00
2018-08-28T05:16:36.103Z,16.00
2018-08-28T05:19:07.194Z,16.10
2018-08-28T05:21:38.284Z,16.10
2018-08-28T05:24:09.311Z,16.10
2018-08-28T05:26:40.341Z,16.10
2018-08-28T05:29:11.841Z,16.20
2018-08-28T05:31:43.019Z,16.20
2018-08-28T05:34:13.948Z,16.30
2018-08-28T05:36:45.219Z,16.40
2018-08-28T05:39:16.209Z,16.50
2018-08-28T05:41:47.229Z,16.50
2018-08-28T05:44:18.417Z,16.60
2018-08-28T05:46:49.797Z,16.60
2018-08-28T05:49:20.851Z,16.70
2018-08-28T05:51:51.921Z,16.70
2018-08-28T05:54:22.858Z,16.70
2018-08-28T05:56:54.118Z,16.80
2018-08-28T05:59:25.223Z,16.80
2018-08-28T06:01:56.542Z,16.80
2018-08-28T06:04:27.830Z,16.90
2018-08-28T06:06:58.917Z,17.10
2018-08-28T06:09:30.001Z,17.30
2018-08-28T06:12:01.222Z,17.50
2018-08-28T06:14:32.388Z,17.50
2018-08-28T06:17:03.732Z,17.70
2018-08-28T06:19:34.794Z,17.80
2018-08-28T06:22:05.932Z,17.90
2018-08-28T06:24:36.858Z,17.80
2018-08-28T06:27:07.903Z,17.80
2018-08-28T06:29:39.305Z,17.80
2018-08-28T06:32:10.396Z,17.80
2018-08-28T06:34:41.568Z,17.90
2018-08-28T06:37:12.591Z,17.90
2018-08-28T06:39:43.864Z,18.10
2018-08-28T06:42:15.165Z,18.20
2018-08-28T06:44:46.158Z,18.40
2018-08-28T06:47:17.119Z,18.50
2018-08-28T06:49:48.373Z,18.60
2018-08-28T06:52:19.428Z,18.70
2018-08-28T06:54:50.909Z,18.70
2018-08-28T06:57:22.260Z,18.60
2018-08-28T06:59:53.738Z,18.60
2018-08-28T07:02:24.730Z,18.60
2018-08-28T07:04:55.742Z,18.60
2018-08-28T07:07:26.933Z,18.70
2018-08-28T07:09:57.935Z,18.70
2018-08-28T07:12:29.145Z,18.60
2018-08-28T07:15:00.584Z,18.70
2018-08-28T07:17:31.911Z,18.60
2018-08-28T07:20:03.179Z,18.60
2018-08-28T07:22:34.186Z,18.50
2018-08-28T07:25:05.458Z,18.40
2018-08-28T07:27:36.497Z,18.30
2018-08-28T07:30:07.925Z,18.30
2018-08-28T07:32:38.921Z,18.20
2018-08-28T07:35:10.103Z,18.10
2018-08-28T07:37:41.040Z,18.10
2018-08-28T07:40:12.198Z,18.10
2018-08-28T07:42:43.258Z,18.10
2018-08-28T07:45:14.523Z,18.10
2018-08-28T07:47:45.511Z,18.20
2018-08-28T07:50:16.483Z,18.10
2018-08-28T07:52:47.850Z,18.10
2018-08-28T07:55:19.130Z,18.00
2018-08-28T07:57:50.210Z,17.90
2018-08-28T08:00:21.411Z,17.90
2018-08-28T08:02:52.406Z,17.80
2018-08-28T08:05:23.582Z,17.70
2018-08-28T08:07:54.920Z,17.70
2018-08-28T08:10:25.923Z,17.70
2018-08-28T08:12:57.165Z,17.70
2018-08-28T08:15:28.116Z,17.70
2018-08-28T08:17:59.164Z,17.80
2018-08-28T08:20:30.248Z,17.90
2018-08-28T08:23:01.370Z,18.00
2018-08-28T08:25:32.397Z,18.20
2018-08-28T08:28:03.405Z,18.30
2018-08-28T08:30:34.868Z,18.40
2018-08-28T08:33:06.196Z,18.40
2018-08-28T08:35:37.343Z,18.40
2018-08-28T08:38:08.706Z,18.50
2018-08-28T08:40:39.827Z,18.40
2018-08-28T08:43:10.862Z,18.40
2018-08-28T08:45:41.867Z,18.50
2018-08-28T08:48:13.025Z,18.50
2018-08-28T08:50:43.984Z,18.50
2018-08-28T08:53:14.877Z,18.60
2018-08-28T08:55:46.025Z,18.70
2018-08-28T08:58:17.010Z,18.80
2018-08-28T09:00:48.179Z,18.90
2018-08-28T09:03:32.010Z,19.10
2018-08-28T09:06:03.321Z,19.20
2018-08-28T09:08:34.486Z,19.40
2018-08-28T09:11:05.428Z,19.40
2018-08-28T09:13:36.698Z,19.60
2018-08-28T09:16:07.643Z,19.60
2018-08-28T09:18:38.717Z,19.70
2018-08-28T09:21:09.778Z,19.80
2018-08-28T09:23:40.854Z,19.80
2018-08-28T09:26:11.902Z,19.90
2018-08-28T09:28:43.105Z,20.00
2018-08-28T09:31:14.207Z,20.10
2018-08-28T09:33:45.339Z,20.20
2018-08-28T09:36:17.426Z,20.30
2018-08-28T09:38:48.941Z,20.40
2018-08-28T09:41:19.923Z,20.40
2018-08-28T09:43:50.850Z,20.50
2018-08-28T09:46:21.887Z,20.60
2018-08-28T09:48:53.129Z,20.70
2018-08-28T09:51:24.492Z,20.80
2018-08-28T09:53:55.544Z,21.00
2018-08-28T09:56:26.519Z,21.20
2018-08-28T09:58:57.502Z,21.40
2018-08-28T10:01:46.237Z,21.50
2018-08-28T10:04:17.914Z,21.80
2018-08-28T10:06:49.130Z,22.20
2018-08-28T10:09:20.181Z,22.60
2018-08-28T10:11:51.377Z,22.90
2018-08-28T10:14:22.804Z,23.00
2018-08-28T10:16:53.985Z,23.00
2018-08-28T10:19:25.117Z,23.00
2018-08-28T10:21:56.089Z,23.00
2018-08-28T10:24:27.219Z,23.10
2018-08-28T10:26:58.425Z,23.20
2018-08-28T10:29:29.764Z,23.20
2018-08-28T10:32:00.743Z,23.10
2018-08-28T10:34:31.718Z,23.30
2018-08-28T10:37:02.713Z,23.50
2018-08-28T10:39:33.637Z,23.80
2018-08-28T10:42:04.805Z,24.00
2018-08-28T10:44:35.972Z,24.20
2018-08-28T10:47:07.969Z,24.20
2018-08-28T10:49:38.871Z,24.40
2018-08-28T10:52:10.045Z,24.60
2018-08-28T10:54:41.267Z,24.70
2018-08-28T10:57:12.472Z,24.90
2018-08-28T10:59:43.560Z,24.90
2018-08-28T11:02:14.705Z,24.80
2018-08-28T11:04:45.844Z,24.70
2018-08-28T11:07:17.137Z,24.90
2018-08-28T11:09:48.332Z,24.90
2018-08-28T11:12:19.382Z,24.90
2018-08-28T11:14:50.585Z,25.00
2018-08-28T11:17:21.702Z,25.20
2018-08-28T11:19:53.052Z,25.50
2018-08-28T11:22:24.177Z,25.70
2018-08-28T11:24:55.209Z,25.90
2018-08-28T11:27:26.183Z,25.90
2018-08-28T11:29:57.193Z,25.90
2018-08-28T11:32:28.171Z,25.80
2018-08-28T11:34:59.453Z,25.80
2018-08-28T11:37:30.434Z,25.90
2018-08-28T11:40:01.529Z,26.10
2018-08-28T11:42:32.680Z,26.10
2018-08-28T11:45:03.721Z,26.20
2018-08-28T11:47:34.945Z,26.40
2018-08-28T11:50:06.731Z,26.40
2018-08-28T11:52:37.977Z,26.40
2018-08-28T11:55:09.551Z,26.40
2018-08-28T11:57:40.821Z,26.50
2018-08-28T12:00:12.050Z,26.40
2018-08-28T12:02:43.573Z,26.40
2018-08-28T12:05:14.826Z,26.50
2018-08-28T12:07:46.178Z,26.50
2018-08-28T12:10:17.534Z,26.50
2018-08-28T12:12:48.713Z,26.50
2018-08-28T12:15:19.903Z,26.60
2018-08-28T12:17:50.896Z,26.50
2018-08-28T12:20:22.367Z,26.60
2018-08-28T12:22:53.497Z,26.70
2018-08-28T12:25:24.657Z,26.80
2018-08-28T12:27:56.130Z,26.60
2018-08-28T12:30:27.086Z,26.50
2018-08-28T12:32:59.076Z,26.50
2018-08-28T12:35:30.278Z,26.50
2018-08-28T12:38:01.574Z,26.50
2018-08-28T12:40:32.791Z,26.70
2018-08-28T12:43:03.901Z,26.60
2018-08-28T12:45:34.967Z,26.60
2018-08-28T12:48:06.224Z,26.50
2018-08-28T12:50:37.680Z,26.40
2018-08-28T12:53:08.854Z,26.20
2018-08-28T12:55:39.750Z,26.10
2018-08-28T12:58:10.739Z,26.10
2018-08-28T13:00:42.174Z,26.20
2018-08-28T13:03:13.295Z,26.40
2018-08-28T13:05:44.345Z,26.50
2018-08-28T13:08:15.562Z,26.50
2018-08-28T13:10:46.766Z,26.40
2018-08-28T13:13:18.176Z,26.30
2018-08-28T13:15:49.231Z,26.00
2018-08-28T13:18:20.631Z,25.80
2018-08-28T13:20:51.780Z,25.70
2018-08-28T13:23:23.196Z,25.70
2018-08-28T13:25:54.414Z,25.60
2018-08-28T13:28:25.826Z,25.60
2018-08-28T13:30:57.184Z,25.60
2018-08-28T13:33:28.517Z,25.50
2018-08-28T13:35:59.846Z,25.50
2018-08-28T13:38:31.094Z,25.50
2018-08-28T13:41:03.672Z,25.40
2018-08-28T13:43:34.889Z,25.40
2018-08-28T13:46:06.254Z,25.40
2018-08-28T13:48:37.695Z,25.40
2018-08-28T13:51:09.038Z,25.30
2018-08-28T13:53:40.395Z,25.20
2018-08-28T13:56:11.764Z,25.10
2018-08-28T13:58:42.924Z,25.10
2018-08-28T14:01:14.039Z,25.10
2018-08-28T14:03:45.272Z,25.20
2018-08-28T14:06:16.382Z,25.30
2018-08-28T14:08:47.469Z,25.30
2018-08-28T14:11:18.682Z,25.30
2018-08-28T14:13:49.843Z,25.40
2018-08-28T14:16:21.084Z,25.40
2018-08-28T14:18:52.456Z,25.30
2018-08-28T14:21:23.692Z,25.30
2018-08-28T14:23:54.957Z,25.30
2018-08-28T14:26:26.398Z,25.30
2018-08-28T14:28:57.797Z,25.30
2018-08-28T14:31:29.315Z,25.30
2018-08-28T14:34:00.900Z,25.30
2018-08-28T14:36:32.527Z,25.20
2018-08-28T14:39:04.161Z,25.10
2018-08-28T14:41:35.507Z,25.00
2018-08-28T14:44:07.314Z,25.00
2018-08-28T14:46:38.575Z,25.00
2018-08-28T14:49:10.446Z,24.90
2018-08-28T14:51:41.910Z,24.90
2018-08-28T14:54:13.329Z,24.90
2018-08-28T14:56:44.950Z,24.90
2018-08-28T14:59:17.025Z,24.90
2018-08-28T15:01:48.335Z,24.90
2018-08-28T15:04:19.582Z,24.90
2018-08-28T15:06:51.058Z,24.80
2018-08-28T15:09:22.468Z,24.70
2018-08-28T15:11:53.723Z,24.50
2018-08-28T15:14:25.197Z,24.30
2018-08-28T15:16:56.567Z,24.20
2018-08-28T15:19:27.699Z,23.90
2018-08-28T15:28:49.090Z,23.50
2018-08-28T15:31:20.764Z,23.10
2018-08-28T15:33:52.211Z,23.00
2018-08-28T15:36:24.298Z,22.80
2018-08-28T15:38:57.924Z,22.70
2018-08-28T15:41:29.536Z,22.50
2018-08-28T15:44:01.625Z,22.40
2018-08-28T15:46:33.500Z,22.30
2018-08-28T15:49:04.710Z,22.20
2018-08-28T15:51:38.740Z,22.10
2018-08-28T15:54:10.906Z,22.00
2018-08-28T15:56:42.907Z,22.00
2018-08-28T15:59:15.133Z,21.90
2018-08-28T16:01:46.431Z,21.80
2018-08-28T16:04:20.684Z,21.70
2018-08-28T16:06:54.291Z,21.60
2018-08-28T16:09:25.533Z,21.60
2018-08-28T16:11:57.414Z,21.50
2018-08-28T16:14:28.980Z,21.40
2018-08-28T16:17:02.137Z,21.30
2018-08-28T16:19:33.354Z,21.20
2018-08-28T16:22:05.905Z,21.10
2018-08-28T16:24:37.553Z,21.10
2018-08-28T16:27:08.996Z,21.00
2018-08-28T16:29:40.274Z,20.90
2018-08-28T16:32:14.876Z,20.80
2018-08-28T16:34:46.076Z,20.70
2018-08-28T16:37:17.924Z,20.60
2018-08-28T16:39:49.326Z,20.50
2018-08-28T16:42:21.609Z,20.30
2018-08-28T16:44:52.629Z,20.20
2018-08-28T16:47:24.153Z,20.10
2018-08-28T16:49:55.553Z,20.00
2018-08-28T16:52:27.098Z,19.90
2018-08-28T16:54:59.272Z,19.80
2018-08-28T16:57:30.433Z,19.70
2018-08-28T17:00:02.204Z,19.60
2018-08-28T17:02:34.425Z,19.50
2018-08-28T17:05:06.790Z,19.40
2018-08-28T17:07:38.100Z,19.30
2018-08-28T17:10:09.499Z,19.30
2018-08-28T17:12:42.033Z,19.20
2018-08-28T17:15:13.373Z,19.20
2018-08-28T17:17:45.458Z,19.10
2018-08-28T17:20:16.814Z,19.10
2018-08-28T17:22:49.775Z,19.00
2018-08-28T17:25:21.573Z,18.90
2018-08-28T17:27:52.580Z,18.80
2018-08-28T17:30:23.998Z,18.70
2018-08-28T17:32:55.341Z,18.70
2018-08-28T17:35:27.111Z,18.60
2018-08-28T17:37:58.356Z,18.60
2018-08-28T17:40:31.774Z,18.60
2018-08-28T17:43:02.936Z,18.60
2018-08-28T17:45:34.960Z,18.60
2018-08-28T17:48:06.459Z,18.60
2018-08-28T17:50:39.519Z,18.60
2018-08-28T17:53:11.572Z,18.60
2018-08-28T17:55:42.692Z,18.50
2018-08-28T17:58:13.993Z,18.50
2018-08-28T18:00:45.129Z,18.50
2018-08-28T18:03:16.476Z,18.50
2018-08-28T18:05:47.492Z,18.50
2018-08-28T18:08:18.662Z,18.50
2018-08-28T18:10:49.972Z,18.40
2018-08-28T18:13:22.728Z,18.40
2018-08-28T18:15:53.850Z,18.40
2018-08-28T18:18:25.220Z,18.30
2018-08-28T18:20:56.607Z,18.30
2018-08-28T18:23:27.779Z,18.30
2018-08-28T18:25:59.476Z,18.20
2018-08-28T18:28:30.788Z,18.20
2018-08-28T18:31:01.899Z,18.20
2018-08-28T18:33:33.346Z,18.20
2018-08-28T18:36:05.406Z,18.20
2018-08-28T18:38:37.597Z,18.20
2018-08-28T18:41:09.006Z,18.20
2018-08-28T18:43:40.570Z,18.10
2018-08-28T18:46:11.746Z,18.10
2018-08-28T18:48:43.008Z,18.10
2018-08-28T18:51:16.281Z,18.10
2018-08-28T18:53:47.701Z,18.10
2018-08-28T18:56:19.087Z,18.10
2018-08-28T18:58:50.144Z,18.10
2018-08-28T19:01:21.532Z,18.10
2018-08-28T19:03:53.480Z,18.10
2018-08-28T19:06:25.006Z,18.00
2018-08-28T19:08:56.539Z,18.00
2018-08-28T19:11:28.908Z,18.00
2018-08-28T19:14:00.291Z,18.00
2018-08-28T19:16:31.845Z,17.90
2018-08-28T19:19:03.812Z,17.90
2018-08-28T19:21:35.355Z,17.90
2018-08-28T19:24:07.454Z,18.00
2018-08-28T19:26:39.285Z,17.90
2018-08-28T19:29:11.706Z,18.00
2018-08-28T19:31:44.089Z,18.00
2018-08-28T19:34:15.709Z,17.90
2018-08-28T19:36:47.382Z,17.90
2018-08-28T19:39:19.028Z,17.90
2018-08-28T19:41:50.749Z,17.80
2018-08-28T19:44:22.527Z,17.80
2018-08-28T19:46:54.253Z,17.80
2018-08-28T19:49:26.303Z,17.80
2018-08-28T19:51:57.964Z,17.80
2018-08-28T19:54:29.621Z,17.80
2018-08-28T19:57:02.285Z,17.80
2018-08-28T19:59:33.867Z,17.80
2018-08-28T20:02:05.633Z,17.80
2018-08-28T20:04:37.916Z,17.80
2018-08-28T20:07:09.968Z,17.80
2018-08-28T20:09:41.419Z,17.80
2018-08-28T20:12:13.101Z,17.80
2018-08-28T20:14:46.722Z,17.70
2018-08-28T20:17:18.338Z,17.70
2018-08-28T20:19:51.342Z,17.70
2018-08-28T20:22:22.896Z,17.70
2018-08-28T20:24:54.216Z,17.70
2018-08-28T20:27:26.201Z,17.70
2018-08-28T20:29:57.838Z,17.70
2018-08-28T20:32:30.257Z,17.70
2018-08-28T20:35:01.885Z,17.70
2018-08-28T20:37:33.520Z,17.70
2018-08-28T20:40:05.140Z,17.70
2018-08-28T20:42:36.986Z,17.70
2018-08-28T20:45:08.769Z,17.70
2018-08-28T20:47:40.348Z,17.70
2018-08-28T20:50:11.964Z,17.70
2018-08-28T20:52:43.718Z,17.70
2018-08-28T20:55:15.108Z,17.70
2018-08-28T20:57:46.352Z,17.70
2018-08-28T21:00:17.461Z,17.60
2018-08-28T21:02:49.114Z,17.70
2018-08-28T21:05:26.255Z,17.70
2018-08-28T21:07:58.748Z,17.70
2018-08-28T21:10:32.208Z,17.60
2018-08-28T21:13:03.532Z,17.60
2018-08-28T21:15:35.694Z,17.50
2018-08-28T21:18:06.880Z,17.50
2018-08-28T21:20:38.418Z,17.50
2018-08-28T21:23:09.809Z,17.50
2018-08-28T21:25:41.045Z,17.50
2018-08-28T21:28:12.423Z,17.50
2018-08-28T21:30:43.870Z,17.60
2018-08-28T21:33:15.325Z,17.50
2018-08-28T21:35:46.669Z,17.50
2018-08-28T21:38:18.045Z,17.50
2018-08-28T21:40:49.835Z,17.50
2018-08-28T21:43:20.851Z,17.50
2018-08-28T21:45:52.225Z,17.60
2018-08-28T21:48:23.410Z,17.60
2018-08-28T21:50:54.597Z,17.60
2018-08-28T21:53:26.125Z,17.50
2018-08-28T21:55:58.466Z,17.50
2018-08-28T21:58:30.310Z,17.50
2018-08-28T22:01:06.880Z,17.50
2018-08-28T22:03:38.644Z,17.50
2018-08-28T22:06:15.065Z,17.50
2018-08-28T22:08:46.410Z,17.50
2018-08-28T22:11:17.735Z,17.40
2018-08-28T22:13:49.009Z,17.40
2018-08-28T22:16:20.198Z,17.40
2018-08-28T22:18:51.345Z,17.40
2018-08-28T22:21:22.732Z,17.40
2018-08-28T22:23:53.821Z,17.40
2018-08-28T22:26:25.166Z,17.40
2018-08-28T22:28:56.485Z,17.40
2018-08-28T22:31:27.828Z,17.40
2018-08-28T22:33:58.826Z,17.40
2018-08-28T22:36:30.449Z,17.40
2018-08-28T22:39:02.011Z,17.30
2018-08-28T22:41:33.124Z,17.30
2018-08-28T22:44:04.075Z,17.30
2018-08-28T22:46:35.171Z,17.30
2018-08-28T22:49:06.303Z,17.30
2018-08-28T22:51:38.078Z,17.30
2018-08-28T22:54:09.223Z,17.30
2018-08-28T22:56:40.425Z,17.30
2018-08-28T22:59:11.497Z,17.30
2018-08-28T23:01:42.673Z,17.30
2018-08-28T23:04:14.049Z,17.30
2018-08-28T23:06:45.134Z,17.40
2018-08-28T23:09:16.122Z,17.30
2018-08-28T23:11:47.728Z,17.40
2018-08-28T23:14:18.922Z,17.40
2018-08-28T23:16:49.902Z,17.40
2018-08-28T23:19:21.328Z,17.40
2018-08-28T23:21:52.342Z,17.40
2018-08-28T23:24:23.249Z,17.40
2018-08-28T23:26:54.394Z,17.30
2018-08-28T23:29:25.617Z,17.30
2018-08-28T23:31:56.658Z,17.30
2018-08-28T23:34:27.559Z,17.30
2018-08-28T23:36:58.538Z,17.30
2018-08-28T23:39:29.436Z,17.30
2018-08-28T23:42:00.875Z,17.30
2018-08-28T23:44:32.249Z,17.30
2018-08-28T23:47:03.944Z,17.30
2018-08-28T23:49:34.862Z,17.30
2018-08-28T23:52:06.430Z,17.30
2018-08-28T23:54:39.034Z,17.30
2018-08-28T23:57:10.541Z,17.30
2018-08-28T23:59:41.638Z,17.30
